Time;durP1;ratioP1;P1;durP2;ratioP2;P2;SDS_P1;SDS_P2;PMS_P1;PMS_P2;Temp;Humidity;BMP_temperature;BMP_pressure;BME280_temperature;BME280_humidity;BME280_pressure;Samples;Min_cycle;Max_cycle;Signal;HPM_P1;HPM_P2
2022/03/23 00:01:37;;;;;;;45.58;27.95;;;;;;;;;;5053383;28;20143;-64
2022/03/23 00:04:03;;;;;;;42.60;28.63;;;;;;;;;;5054288;28;20047;-64
2022/03/23 00:06:29;;;;;;;45.00;28.08;;;;;;;;;;5053980;28;20106;-64
2022/03/23 00:08:57;;;;;;;41.88;27.80;;;;;;;;;;5049704;28;20029;-64
2022/03/23 00:11:24;;;;;;;44.83;28.98;;;;;;;;;;5054521;28;20044;-64
2022/03/23 00:13:50;;;;;;;43.00;28.50;;;;;;;;;;5051525;28;20062;-64
2022/03/23 00:16:16;;;;;;;45.72;30.35;;;;;;;;;;5042913;28;20105;-64
2022/03/23 00:18:42;;;;;;;42.92;28.00;;;;;;;;;;5053204;28;20049;-64
2022/03/23 00:21:09;;;;;;;43.78;28.63;;;;;;;;;;5053385;28;20041;-64
2022/03/23 00:23:35;;;;;;;46.30;29.65;;;;;;;;;;5069700;28;20046;-64
2022/03/23 00:26:02;;;;;;;42.25;28.35;;;;;;;;;;5053681;28;20094;-64
2022/03/23 00:28:28;;;;;;;47.22;28.88;;;;;;;;;;5074213;28;20047;-64
2022/03/23 00:30:55;;;;;;;41.30;26.75;;;;;;;;;;5070860;28;20051;-64
2022/03/23 00:33:21;;;;;;;43.22;28.02;;;;;;;;;;5054305;28;20078;-64
2022/03/23 00:35:48;;;;;;;40.65;26.40;;;;;;;;;;5054742;28;20037;-64
2022/03/23 00:38:15;;;;;;;43.88;29.42;;;;;;;;;;5073786;28;20090;-64
2022/03/23 00:40:43;;;;;;;43.35;25.95;;;;;;;;;;5054425;28;20045;-64
2022/03/23 00:43:09;;;;;;;47.05;29.58;;;;;;;;;;5051898;28;20097;-64
2022/03/23 00:45:35;;;;;;;43.20;26.48;;;;;;;;;;5054774;28;20043;-64
2022/03/23 00:48:02;;;;;;;42.75;28.17;;;;;;;;;;5054185;28;20053;-64
2022/03/23 00:50:28;;;;;;;46.40;26.98;;;;;;;;;;5052180;28;20070;-64
2022/03/23 00:52:54;;;;;;;46.35;27.52;;;;;;;;;;5070786;28;20041;-64
2022/03/23 00:55:20;;;;;;;43.10;27.42;;;;;;;;;;5040094;28;20103;-64
2022/03/23 00:57:46;;;;;;;44.50;27.50;;;;;;;;;;5050450;28;20041;-64
2022/03/23 01:00:17;;;;;;;43.10;27.42;;;;;;;;;;5032425;28;20048;-64
2022/03/23 01:02:44;;;;;;;40.53;26.27;;;;;;;;;;5050237;28;20044;-64
2022/03/23 01:05:11;;;;;;;45.08;27.88;;;;;;;;;;5032756;28;20473;-66
2022/03/23 01:07:38;;;;;;;43.40;27.85;;;;;;;;;;5050758;28;20039;-64
2022/03/23 01:10:05;;;;;;;47.47;28.30;;;;;;;;;;5032642;28;20072;-64
2022/03/23 01:12:31;;;;;;;45.63;27.75;;;;;;;;;;5033282;28;20114;-64
2022/03/23 01:14:57;;;;;;;42.17;26.55;;;;;;;;;;5049845;28;20124;-64
2022/03/23 01:17:23;;;;;;;43.78;26.52;;;;;;;;;;5050467;28;20333;-64
2022/03/23 01:19:50;;;;;;;44.58;28.02;;;;;;;;;;5051213;28;20033;-64
2022/03/23 01:22:16;;;;;;;45.17;27.92;;;;;;;;;;5031757;28;20124;-64
2022/03/23 01:24:42;;;;;;;43.08;27.73;;;;;;;;;;5015299;28;20100;-64
2022/03/23 01:27:08;;;;;;;45.83;27.80;;;;;;;;;;5050019;28;20116;-64
2022/03/23 01:29:35;;;;;;;47.55;27.80;;;;;;;;;;5049663;28;20037;-64
2022/03/23 01:32:01;;;;;;;41.67;26.98;;;;;;;;;;5031959;28;20397;-64
2022/03/23 01:34:27;;;;;;;45.08;26.67;;;;;;;;;;5030364;28;20438;-64
2022/03/23 01:36:53;;;;;;;42.33;27.83;;;;;;;;;;5029946;28;20152;-64
2022/03/23 01:39:19;;;;;;;46.58;26.75;;;;;;;;;;5032544;28;20049;-64
2022/03/23 01:41:45;;;;;;;47.72;29.45;;;;;;;;;;5031883;28;20044;-64
2022/03/23 01:44:13;;;;;;;42.33;27.63;;;;;;;;;;5015084;28;20073;-64
2022/03/23 01:46:58;;;;;;;43.85;28.90;;;;;;;;;;5031534;28;20794;-64
2022/03/23 01:49:25;;;;;;;42.87;26.33;;;;;;;;;;5031571;28;20103;-64
2022/03/23 01:51:51;;;;;;;38.85;26.13;;;;;;;;;;5049693;28;20508;-64
2022/03/23 01:54:17;;;;;;;43.42;26.90;;;;;;;;;;5035272;28;20434;-64
2022/03/23 01:56:43;;;;;;;41.03;26.05;;;;;;;;;;5071510;28;20068;-64
2022/03/23 01:59:10;;;;;;;39.00;26.15;;;;;;;;;;5054632;28;20055;-64
2022/03/23 02:01:38;;;;;;;44.55;27.02;;;;;;;;;;5062580;28;20036;-64
2022/03/23 02:04:04;;;;;;;48.50;27.83;;;;;;;;;;5056139;28;20066;-64
2022/03/23 02:06:30;;;;;;;43.63;28.20;;;;;;;;;;5052817;28;20049;-64
2022/03/23 02:08:56;;;;;;;42.72;26.63;;;;;;;;;;5073199;28;20051;-64
2022/03/23 02:11:22;;;;;;;40.35;26.55;;;;;;;;;;5053974;28;20049;-64
2022/03/23 02:13:48;;;;;;;45.28;27.15;;;;;;;;;;5072539;28;20045;-64
2022/03/23 02:16:14;;;;;;;44.70;27.92;;;;;;;;;;5071374;28;20106;-64
2022/03/23 02:18:40;;;;;;;43.38;27.30;;;;;;;;;;5069908;28;20029;-64
2022/03/23 02:21:07;;;;;;;44.33;28.58;;;;;;;;;;5074829;28;20631;-64
2022/03/23 02:23:33;;;;;;;43.08;27.55;;;;;;;;;;5073092;28;20040;-64
2022/03/23 02:26:01;;;;;;;44.25;27.33;;;;;;;;;;5055750;28;20045;-64
2022/03/23 02:28:28;;;;;;;44.88;27.75;;;;;;;;;;5053650;28;20154;-64
2022/03/23 02:30:54;;;;;;;40.65;25.75;;;;;;;;;;5072261;28;20040;-64
2022/03/23 02:33:21;;;;;;;41.38;26.75;;;;;;;;;;5053878;28;20361;-64
2022/03/23 02:35:50;;;;;;;48.95;28.75;;;;;;;;;;5054970;28;20033;-64
2022/03/23 02:38:17;;;;;;;51.28;28.85;;;;;;;;;;5052336;28;20098;-64
2022/03/23 02:40:46;;;;;;;42.28;27.23;;;;;;;;;;5053856;28;20512;-64
2022/03/23 02:43:13;;;;;;;48.65;29.40;;;;;;;;;;5072621;28;20090;-64
2022/03/23 02:45:39;;;;;;;45.72;28.65;;;;;;;;;;5039155;28;20047;-64
2022/03/23 02:48:06;;;;;;;47.45;27.88;;;;;;;;;;5071287;28;20112;-64
2022/03/23 02:50:33;;;;;;;47.50;27.15;;;;;;;;;;5056973;28;20457;-64
2022/03/23 03:04:18;;;;;;;47.63;27.35;;;;;;;;;;5070544;28;20887;-64
2022/03/23 03:06:45;;;;;;;43.85;26.45;;;;;;;;;;5068141;28;20127;-64
2022/03/23 03:09:11;;;;;;;43.78;26.60;;;;;;;;;;5053581;28;20060;-64
2022/03/23 03:11:38;;;;;;;45.50;27.92;;;;;;;;;;5054767;28;20548;-64
2022/03/23 03:14:04;;;;;;;44.55;28.75;;;;;;;;;;5052684;28;20124;-64
2022/03/23 03:16:30;;;;;;;42.83;26.92;;;;;;;;;;5052580;28;20504;-65
2022/03/23 03:18:56;;;;;;;45.97;28.02;;;;;;;;;;5067097;28;20048;-64
2022/03/23 03:21:22;;;;;;;42.80;27.08;;;;;;;;;;5069657;28;20393;-63
2022/03/23 03:23:48;;;;;;;39.25;24.65;;;;;;;;;;5052525;28;20110;-63
2022/03/23 03:26:15;;;;;;;42.17;25.80;;;;;;;;;;5054180;28;20127;-63
2022/03/23 03:28:42;;;;;;;44.22;27.25;;;;;;;;;;5053158;28;20489;-63
2022/03/23 03:31:09;;;;;;;44.95;26.55;;;;;;;;;;5052730;28;20040;-63
2022/03/23 03:33:36;;;;;;;43.28;25.63;;;;;;;;;;5053418;28;20075;-63
2022/03/23 03:36:02;;;;;;;44.85;27.73;;;;;;;;;;5053045;28;20036;-63
2022/03/23 03:38:28;;;;;;;43.33;27.80;;;;;;;;;;5053804;28;20086;-63
2022/03/23 03:40:55;;;;;;;47.33;27.80;;;;;;;;;;5052923;28;20040;-63
2022/03/23 03:43:21;;;;;;;44.60;26.65;;;;;;;;;;5072319;28;20115;-63
2022/03/23 03:45:47;;;;;;;49.15;29.80;;;;;;;;;;5047811;28;20033;-63
2022/03/23 03:48:13;;;;;;;48.28;28.92;;;;;;;;;;5072015;28;20059;-63
2022/03/23 03:50:40;;;;;;;50.15;28.35;;;;;;;;;;5054409;28;20135;-63
2022/03/23 03:53:09;;;;;;;43.78;27.52;;;;;;;;;;5054625;28;20040;-63
2022/03/23 03:55:39;;;;;;;47.67;30.20;;;;;;;;;;5072111;28;20121;-63
2022/03/23 03:58:05;;;;;;;47.60;28.70;;;;;;;;;;5072614;28;20431;-63
2022/03/23 04:00:34;;;;;;;44.85;27.90;;;;;;;;;;5074523;28;20163;-64
2022/03/23 04:03:00;;;;;;;50.03;27.63;;;;;;;;;;5073906;28;20090;-64
2022/03/23 04:05:28;;;;;;;48.85;28.58;;;;;;;;;;5056303;28;20044;-63
2022/03/23 04:07:55;;;;;;;45.70;28.67;;;;;;;;;;5054273;28;20036;-64
2022/03/23 04:10:21;;;;;;;47.67;28.13;;;;;;;;;;5074074;28;20048;-63
2022/03/23 04:12:47;;;;;;;49.63;28.85;;;;;;;;;;5053446;28;20044;-63
2022/03/23 04:15:14;;;;;;;44.75;27.90;;;;;;;;;;5068016;28;20485;-64
2022/03/23 04:17:41;;;;;;;42.53;27.05;;;;;;;;;;5053203;28;20028;-63
2022/03/23 04:20:08;;;;;;;46.67;27.73;;;;;;;;;;5052419;28;20040;-63
2022/03/23 04:22:34;;;;;;;40.83;26.55;;;;;;;;;;5071079;28;20408;-63
2022/03/23 04:25:00;;;;;;;43.25;27.50;;;;;;;;;;5052445;28;20083;-63
2022/03/23 04:27:26;;;;;;;49.05;28.85;;;;;;;;;;5070413;28;20115;-64
2022/03/23 04:29:52;;;;;;;48.47;28.83;;;;;;;;;;5052320;28;20032;-63
2022/03/23 04:32:18;;;;;;;45.88;27.92;;;;;;;;;;5052466;28;20090;-63
2022/03/23 04:34:44;;;;;;;44.22;27.45;;;;;;;;;;5052179;28;20047;-63
2022/03/23 04:37:10;;;;;;;43.72;27.50;;;;;;;;;;5053129;28;20036;-63
2022/03/23 04:39:36;;;;;;;41.40;26.75;;;;;;;;;;5047715;28;20493;-63
2022/03/23 04:42:02;;;;;;;39.65;24.77;;;;;;;;;;5070815;28;20036;-63
2022/03/23 04:44:28;;;;;;;47.50;26.27;;;;;;;;;;5069170;28;20557;-63
2022/03/23 04:46:54;;;;;;;40.67;26.63;;;;;;;;;;5055057;28;20562;-63
2022/03/23 04:49:20;;;;;;;44.00;27.63;;;;;;;;;;5052696;28;20044;-63
2022/03/23 04:51:46;;;;;;;44.13;28.10;;;;;;;;;;5052807;28;20159;-63
2022/03/23 04:54:13;;;;;;;46.05;27.88;;;;;;;;;;5069805;28;20044;-63
2022/03/23 04:56:39;;;;;;;47.15;28.40;;;;;;;;;;5052599;28;20052;-63
2022/03/23 04:59:05;;;;;;;43.97;26.13;;;;;;;;;;5070194;28;20083;-63
2022/03/23 05:01:31;;;;;;;43.80;26.85;;;;;;;;;;5051303;28;20056;-63
2022/03/23 05:03:57;;;;;;;43.38;26.63;;;;;;;;;;5052393;28;20484;-63
2022/03/23 05:06:23;;;;;;;41.55;25.08;;;;;;;;;;5051980;28;20511;-63
2022/03/23 05:08:49;;;;;;;45.92;26.35;;;;;;;;;;5070518;28;20456;-63
2022/03/23 05:11:15;;;;;;;41.25;26.15;;;;;;;;;;5052174;28;20052;-63
2022/03/23 05:13:42;;;;;;;40.75;26.00;;;;;;;;;;5051856;28;20040;-63
2022/03/23 05:16:08;;;;;;;46.10;27.58;;;;;;;;;;5070594;28;20044;-63
2022/03/23 05:18:34;;;;;;;42.15;27.45;;;;;;;;;;5052201;28;20044;-63
2022/03/23 05:21:00;;;;;;;44.00;26.38;;;;;;;;;;5070363;28;20114;-63
2022/03/23 05:23:26;;;;;;;41.10;24.65;;;;;;;;;;5052268;28;20079;-63
2022/03/23 05:25:52;;;;;;;44.65;26.08;;;;;;;;;;5069753;28;20051;-63
2022/03/23 05:28:18;;;;;;;48.03;27.13;;;;;;;;;;5052190;28;20476;-65
2022/03/23 05:30:44;;;;;;;43.35;25.75;;;;;;;;;;5049912;28;20083;-64
2022/03/23 05:33:10;;;;;;;44.25;25.45;;;;;;;;;;5074028;28;20033;-63
2022/03/23 05:35:36;;;;;;;45.38;25.92;;;;;;;;;;5028203;28;20043;-63
2022/03/23 05:38:03;;;;;;;40.90;26.02;;;;;;;;;;5074615;28;20377;-64
2022/03/23 05:40:29;;;;;;;40.53;26.10;;;;;;;;;;5073613;28;20525;-63
2022/03/23 05:42:55;;;;;;;40.90;24.77;;;;;;;;;;5074642;28;20401;-63
2022/03/23 05:45:21;;;;;;;41.15;25.42;;;;;;;;;;5055377;28;20178;-63
2022/03/23 05:47:49;;;;;;;43.45;25.83;;;;;;;;;;5055413;28;20041;-63
2022/03/23 05:50:15;;;;;;;40.80;26.10;;;;;;;;;;5055258;28;20052;-63
2022/03/23 05:52:42;;;;;;;40.35;24.77;;;;;;;;;;5066900;28;20056;-63
2022/03/23 05:55:11;;;;;;;42.53;25.50;;;;;;;;;;5063908;28;20048;-63
2022/03/23 05:57:38;;;;;;;42.97;26.58;;;;;;;;;;5071502;28;20416;-63
2022/03/23 06:00:05;;;;;;;40.50;25.65;;;;;;;;;;5073819;28;20448;-63
2022/03/23 06:02:31;;;;;;;43.28;26.17;;;;;;;;;;5074266;28;20495;-63
2022/03/23 06:04:57;;;;;;;43.10;26.23;;;;;;;;;;5074183;28;20041;-64
2022/03/23 06:07:23;;;;;;;40.85;25.02;;;;;;;;;;5023297;28;20473;-63
2022/03/23 06:09:49;;;;;;;42.80;25.58;;;;;;;;;;5054278;28;20390;-63
2022/03/23 06:12:15;;;;;;;44.58;26.42;;;;;;;;;;5053952;28;20131;-63
2022/03/23 06:14:43;;;;;;;39.38;25.75;;;;;;;;;;5073216;28;20045;-63
2022/03/23 06:17:12;;;;;;;44.63;25.92;;;;;;;;;;5072498;28;20062;-63
2022/03/23 06:19:38;;;;;;;40.72;25.20;;;;;;;;;;5072884;28;20071;-63
2022/03/23 06:22:05;;;;;;;40.25;25.65;;;;;;;;;;5075651;28;20044;-63
2022/03/23 06:24:31;;;;;;;39.72;25.92;;;;;;;;;;5057268;28;20048;-63
2022/03/23 06:26:57;;;;;;;41.63;25.13;;;;;;;;;;5055073;28;20037;-63
2022/03/23 06:29:23;;;;;;;41.17;25.20;;;;;;;;;;5059726;28;20040;-63
2022/03/23 06:31:49;;;;;;;40.40;24.48;;;;;;;;;;5071502;28;20106;-63
2022/03/23 06:34:16;;;;;;;40.28;25.48;;;;;;;;;;5071638;28;20071;-63
2022/03/23 06:36:42;;;;;;;38.92;25.05;;;;;;;;;;5055493;28;20544;-63
2022/03/23 06:39:08;;;;;;;41.72;26.67;;;;;;;;;;5040903;28;21123;-63
2022/03/23 06:41:34;;;;;;;45.13;26.48;;;;;;;;;;5073566;28;20053;-63
2022/03/23 06:44:00;;;;;;;43.70;25.30;;;;;;;;;;5053479;28;20055;-63
2022/03/23 06:46:26;;;;;;;38.70;25.65;;;;;;;;;;5041959;28;20385;-63
2022/03/23 06:48:52;;;;;;;38.45;25.63;;;;;;;;;;5068629;28;20029;-63
2022/03/23 06:51:18;;;;;;;44.35;24.92;;;;;;;;;;5050653;28;20079;-63
2022/03/23 06:53:46;;;;;;;38.33;25.17;;;;;;;;;;5055047;28;20099;-63
2022/03/23 06:56:12;;;;;;;41.15;25.55;;;;;;;;;;5072910;28;20143;-63
2022/03/23 06:58:38;;;;;;;39.03;25.10;;;;;;;;;;5055366;28;20071;-63
2022/03/23 07:01:04;;;;;;;44.40;27.08;;;;;;;;;;5069442;28;20122;-63
2022/03/23 07:03:30;;;;;;;37.42;25.38;;;;;;;;;;5054168;28;20052;-63
2022/03/23 07:05:56;;;;;;;41.95;26.75;;;;;;;;;;5051859;28;20071;-63
2022/03/23 07:11:07;;;;;;;52.00;29.42;;;;;;;;;;5070140;28;20400;-63
2022/03/23 07:13:33;;;;;;;49.85;30.85;;;;;;;;;;5054808;28;20070;-63
2022/03/23 07:15:59;;;;;;;49.72;30.05;;;;;;;;;;5052627;28;20044;-59
2022/03/23 07:18:27;;;;;;;46.58;29.40;;;;;;;;;;5053142;28;20043;-63
2022/03/23 07:20:53;;;;;;;48.22;30.55;;;;;;;;;;5055302;28;20079;-63
2022/03/23 07:23:19;;;;;;;54.30;30.20;;;;;;;;;;5076458;28;20051;-64
2022/03/23 07:25:45;;;;;;;45.53;28.63;;;;;;;;;;5077472;28;20111;-63
2022/03/23 07:28:11;;;;;;;48.30;29.42;;;;;;;;;;5055275;28;20052;-63
2022/03/23 07:30:40;;;;;;;47.15;28.88;;;;;;;;;;5076259;28;20497;-63
2022/03/23 07:33:06;;;;;;;48.22;28.30;;;;;;;;;;5054115;28;20445;-63
2022/03/23 07:35:32;;;;;;;47.05;30.85;;;;;;;;;;5076459;28;20373;-64
2022/03/23 07:37:58;;;;;;;44.45;27.55;;;;;;;;;;5072268;28;20076;-63
2022/03/23 07:40:24;;;;;;;49.30;28.77;;;;;;;;;;5057174;28;20074;-64
2022/03/23 07:42:50;;;;;;;43.15;28.20;;;;;;;;;;5062068;28;20405;-65
2022/03/23 07:45:16;;;;;;;41.28;28.15;;;;;;;;;;5053365;28;20114;-64
2022/03/23 07:47:43;;;;;;;45.38;29.02;;;;;;;;;;5055838;28;20044;-64
2022/03/23 07:50:10;;;;;;;36.53;26.17;;;;;;;;;;5050000;28;20058;-64
2022/03/23 07:52:36;;;;;;;48.50;28.42;;;;;;;;;;5055890;28;20105;-63
2022/03/23 07:55:03;;;;;;;46.05;27.38;;;;;;;;;;5055518;28;20048;-64
2022/03/23 07:57:29;;;;;;;42.30;27.98;;;;;;;;;;5073992;28;20086;-64
2022/03/23 07:59:55;;;;;;;42.67;27.52;;;;;;;;;;5075355;28;20120;-64
2022/03/23 08:02:26;;;;;;;42.63;26.05;;;;;;;;;;5075639;28;20044;-64
2022/03/23 08:04:52;;;;;;;44.85;26.98;;;;;;;;;;5075419;28;20067;-64
2022/03/23 08:07:18;;;;;;;41.38;28.10;;;;;;;;;;5072238;28;20496;-64
2022/03/23 08:09:45;;;;;;;45.05;27.33;;;;;;;;;;5072327;28;20080;-64
2022/03/23 08:12:11;;;;;;;43.17;27.40;;;;;;;;;;5069453;28;20049;-64
2022/03/23 08:14:37;;;;;;;41.70;26.35;;;;;;;;;;5071060;28;20060;-64
2022/03/23 08:17:03;;;;;;;40.55;26.60;;;;;;;;;;5072559;28;20037;-64
2022/03/23 08:19:29;;;;;;;43.15;27.75;;;;;;;;;;5050635;28;20118;-64
2022/03/23 08:21:55;;;;;;;39.70;27.75;;;;;;;;;;5072424;28;20170;-64
2022/03/23 08:24:21;;;;;;;41.70;27.60;;;;;;;;;;5054110;28;20051;-64
2022/03/23 08:26:48;;;;;;;36.97;25.73;;;;;;;;;;5072106;28;20048;-64
2022/03/23 08:29:14;;;;;;;41.15;27.10;;;;;;;;;;5053446;28;20458;-64
2022/03/23 08:31:40;;;;;;;43.65;26.63;;;;;;;;;;5072063;28;20145;-64
2022/03/23 08:34:07;;;;;;;41.28;27.92;;;;;;;;;;5072165;28;20040;-64
2022/03/23 08:36:33;;;;;;;41.78;28.17;;;;;;;;;;5053975;28;20045;-64
2022/03/23 08:38:59;;;;;;;46.22;27.33;;;;;;;;;;5050438;28;20095;-64
2022/03/23 08:41:27;;;;;;;41.13;27.83;;;;;;;;;;5071745;28;20044;-64
2022/03/23 08:43:53;;;;;;;39.90;27.25;;;;;;;;;;5071356;28;20051;-64
2022/03/23 08:46:19;;;;;;;40.38;27.42;;;;;;;;;;5054120;28;20582;-64
2022/03/23 08:48:45;;;;;;;40.17;25.83;;;;;;;;;;5071978;28;20094;-64
2022/03/23 08:51:11;;;;;;;36.15;26.50;;;;;;;;;;5053587;28;20048;-64
2022/03/23 08:53:42;;;;;;;41.78;27.30;;;;;;;;;;5053470;28;20044;-64
2022/03/23 08:56:08;;;;;;;35.53;26.63;;;;;;;;;;5053605;28;20052;-64
2022/03/23 08:58:35;;;;;;;34.20;24.08;;;;;;;;;;5053064;28;20098;-64
2022/03/23 09:01:01;;;;;;;37.85;25.75;;;;;;;;;;5071417;28;20396;-64
2022/03/23 09:03:27;;;;;;;36.55;25.65;;;;;;;;;;5071825;28;20033;-64
2022/03/23 09:05:53;;;;;;;39.17;26.00;;;;;;;;;;5070643;28;20491;-64
2022/03/23 09:08:19;;;;;;;38.70;24.73;;;;;;;;;;5067787;28;20048;-64
2022/03/23 09:10:45;;;;;;;36.30;25.30;;;;;;;;;;5066613;28;20358;-64
2022/03/23 09:13:11;;;;;;;34.45;25.75;;;;;;;;;;5069266;28;20032;-64
2022/03/23 09:15:37;;;;;;;37.88;25.42;;;;;;;;;;5053430;28;20036;-64
2022/03/23 09:18:04;;;;;;;35.80;24.65;;;;;;;;;;5081189;28;20064;-64
2022/03/23 09:20:32;;;;;;;32.70;24.77;;;;;;;;;;5063345;28;20607;-64
2022/03/23 09:22:58;;;;;;;34.13;25.17;;;;;;;;;;5056249;28;20076;-64
2022/03/23 09:25:25;;;;;;;32.80;24.70;;;;;;;;;;5081293;28;20127;-64
2022/03/23 09:27:52;;;;;;;34.92;25.52;;;;;;;;;;5081746;28;20040;-64
2022/03/23 09:30:18;;;;;;;31.70;23.38;;;;;;;;;;5066959;28;20552;-64
2022/03/23 09:32:46;;;;;;;35.70;24.05;;;;;;;;;;5057049;28;20044;-64
2022/03/23 09:35:12;;;;;;;29.88;22.42;;;;;;;;;;5061432;28;20044;-64
2022/03/23 09:37:47;;;;;;;30.13;21.92;;;;;;;;;;5053326;28;20068;-64
2022/03/23 09:40:14;;;;;;;32.37;21.60;;;;;;;;;;5036792;28;20369;-64
2022/03/23 09:42:41;;;;;;;28.35;21.23;;;;;;;;;;5079299;28;20504;-64
2022/03/23 09:45:07;;;;;;;33.40;22.67;;;;;;;;;;5071931;28;20392;-64
2022/03/23 09:47:33;;;;;;;27.67;20.40;;;;;;;;;;5070710;28;20132;-64
2022/03/23 09:49:59;;;;;;;28.90;19.80;;;;;;;;;;5070959;28;20562;-64
2022/03/23 09:52:27;;;;;;;23.17;18.33;;;;;;;;;;5070148;28;20051;-68
2022/03/23 09:54:53;;;;;;;24.65;18.17;;;;;;;;;;5070204;28;20132;-67
2022/03/23 09:57:19;;;;;;;22.33;18.38;;;;;;;;;;5037292;28;20125;-64
2022/03/23 09:59:45;;;;;;;26.30;18.20;;;;;;;;;;5052538;28;20052;-64
2022/03/23 10:02:31;;;;;;;23.13;17.30;;;;;;;;;;5052874;28;20049;-64
2022/03/23 10:05:09;;;;;;;28.00;17.80;;;;;;;;;;5052351;28;20101;-64
2022/03/23 10:07:46;;;;;;;21.08;15.93;;;;;;;;;;5045998;28;20053;-64
2022/03/23 10:10:30;;;;;;;20.10;15.02;;;;;;;;;;5057649;28;20048;-64
2022/03/23 10:13:17;;;;;;;17.60;14.02;;;;;;;;;;5053492;28;20505;-64
2022/03/23 10:16:02;;;;;;;21.30;14.57;;;;;;;;;;5069599;28;20102;-64
2022/03/23 10:18:47;;;;;;;22.60;15.38;;;;;;;;;;5068628;28;20119;-64
2022/03/23 10:21:13;;;;;;;22.77;15.57;;;;;;;;;;5075054;28;20059;-64
2022/03/23 10:23:39;;;;;;;25.60;15.90;;;;;;;;;;5055085;28;20036;-64
2022/03/23 10:26:13;;;;;;;21.98;16.48;;;;;;;;;;5053587;28;20106;-65
2022/03/23 10:28:40;;;;;;;22.52;16.05;;;;;;;;;;5051985;28;20052;-65
2022/03/23 10:31:16;;;;;;;20.73;15.63;;;;;;;;;;5074096;28;20389;-64
2022/03/23 10:33:43;;;;;;;19.20;15.52;;;;;;;;;;5062227;28;20549;-65
2022/03/23 10:36:11;;;;;;;23.48;15.98;;;;;;;;;;5058001;28;20098;-65
2022/03/23 10:38:38;;;;;;;18.88;15.10;;;;;;;;;;5058330;28;20059;-65
2022/03/23 10:41:24;;;;;;;25.85;16.05;;;;;;;;;;5055777;28;20127;-65
2022/03/23 10:43:50;;;;;;;18.85;15.15;;;;;;;;;;5054055;28;20501;-65
2022/03/23 10:46:17;;;;;;;19.60;15.05;;;;;;;;;;5077328;28;20488;-65
2022/03/23 10:48:51;;;;;;;20.58;16.17;;;;;;;;;;5077857;28;20520;-65
2022/03/23 10:51:37;;;;;;;20.13;15.25;;;;;;;;;;5059675;28;20040;-65
2022/03/23 10:54:21;;;;;;;19.67;15.63;;;;;;;;;;5072214;28;20372;-65
2022/03/23 10:56:47;;;;;;;21.27;15.25;;;;;;;;;;5053440;28;20409;-65
2022/03/23 10:59:16;;;;;;;24.00;15.25;;;;;;;;;;5077309;28;20044;-65
2022/03/23 11:02:07;;;;;;;22.58;14.88;;;;;;;;;;5042587;28;20426;-65
2022/03/23 11:04:42;;;;;;;19.77;14.20;;;;;;;;;;5055531;28;20056;-65
2022/03/23 11:07:22;;;;;;;20.42;15.55;;;;;;;;;;5076115;28;20036;-65
2022/03/23 11:18:09;;;;;;;22.67;15.32;;;;;;;;;;5055904;28;20560;-65
2022/03/23 11:20:48;;;;;;;24.23;15.55;;;;;;;;;;5072363;28;20048;-65
2022/03/23 11:23:24;;;;;;;19.75;14.23;;;;;;;;;;5055570;28;20044;-65
2022/03/23 11:26:10;;;;;;;21.27;13.68;;;;;;;;;;5055170;28;20044;-65
2022/03/23 11:28:36;;;;;;;;;;;;;;;;;;5052174;28;20049;-65
2022/03/23 11:31:04;;;;;;;23.08;11.90;;;;;;;;;;5074430;28;19928;-65
2022/03/23 11:33:32;;;;;;;20.20;12.00;;;;;;;;;;5055665;28;20419;-65
2022/03/23 11:35:59;;;;;;;18.95;12.38;;;;;;;;;;5054982;28;20041;-65
2022/03/23 11:38:26;;;;;;;19.67;12.77;;;;;;;;;;5054917;28;20052;-65
2022/03/23 11:40:52;;;;;;;14.68;11.82;;;;;;;;;;5071720;28;20040;-65
2022/03/23 11:43:20;;;;;;;21.85;11.80;;;;;;;;;;5068956;28;20047;-65
2022/03/23 11:45:47;;;;;;;24.13;12.52;;;;;;;;;;5045878;28;20477;-65
2022/03/23 11:48:19;;;;;;;17.85;11.65;;;;;;;;;;5053224;28;20393;-65
2022/03/23 11:50:48;;;;;;;20.05;11.10;;;;;;;;;;5047435;28;20049;-65
2022/03/23 11:53:30;;;;;;;22.30;12.25;;;;;;;;;;5054555;28;20384;-66
2022/03/23 11:55:57;;;;;;;18.30;12.38;;;;;;;;;;5054245;28;20045;-65
2022/03/23 11:58:33;;;;;;;20.30;12.57;;;;;;;;;;5057095;28;20044;-65
2022/03/23 12:01:12;;;;;;;18.05;12.95;;;;;;;;;;5053440;28;20067;-65
2022/03/23 12:03:44;;;;;;;19.77;11.75;;;;;;;;;;5068407;28;20043;-65
2022/03/23 12:06:11;;;;;;;19.25;11.07;;;;;;;;;;5053446;28;21139;-65
2022/03/23 12:08:45;;;;;;;17.00;11.65;;;;;;;;;;5054066;28;20054;-69
2022/03/23 12:11:30;;;;;;;19.50;11.60;;;;;;;;;;5055169;28;21005;-65
2022/03/23 12:13:56;;;;;;;19.15;11.65;;;;;;;;;;5048590;28;20040;-66
2022/03/23 12:16:42;;;;;;;21.85;11.60;;;;;;;;;;5054017;28;20036;-65
2022/03/23 12:19:10;;;;;;;18.65;11.43;;;;;;;;;;5053893;28;20036;-65
2022/03/23 12:21:44;;;;;;;17.75;11.93;;;;;;;;;;5070123;28;20044;-65
2022/03/23 12:24:14;;;;;;;19.95;11.80;;;;;;;;;;5064433;28;20052;-65
2022/03/23 12:26:43;;;;;;;22.30;11.68;;;;;;;;;;5071232;28;20167;-65
2022/03/23 12:29:13;;;;;;;21.45;11.13;;;;;;;;;;5071460;28;20040;-65
2022/03/23 12:31:40;;;;;;;25.73;11.18;;;;;;;;;;5071794;28;20044;-65
2022/03/23 12:34:18;;;;;;;21.42;11.43;;;;;;;;;;5053289;28;20078;-65
2022/03/23 12:37:01;;;;;;;21.70;12.05;;;;;;;;;;5053537;28;20443;-65
2022/03/23 12:39:35;;;;;;;21.83;11.10;;;;;;;;;;5052863;28;20139;-65
2022/03/23 12:42:16;;;;;;;18.75;11.07;;;;;;;;;;5067427;28;20057;-65
2022/03/23 12:44:49;;;;;;;18.60;12.07;;;;;;;;;;5070926;28;20037;-65
2022/03/23 12:47:17;;;;;;;20.20;11.98;;;;;;;;;;5053369;28;20048;-65
2022/03/23 12:58:13;;;;;;;21.40;7.53;;;;;;;;;;5053307;28;20411;-65
2022/03/23 13:00:46;;;;;;;19.67;7.35;;;;;;;;;;5052975;28;20080;-65
2022/03/23 13:03:12;;;;;;;21.48;7.38;;;;;;;;;;5071312;28;20401;-65
2022/03/23 13:05:58;;;;;;;19.42;6.50;;;;;;;;;;5071360;28;20051;-65
2022/03/23 13:08:30;;;;;;;14.52;6.40;;;;;;;;;;5071204;28;20064;-65
2022/03/23 13:11:00;;;;;;;21.92;6.85;;;;;;;;;;5070950;28;20466;-65
2022/03/23 13:13:26;;;;;;;21.55;8.23;;;;;;;;;;5068883;28;20041;-65
2022/03/23 13:15:53;;;;;;;20.42;8.50;;;;;;;;;;5070676;28;20056;-65
2022/03/23 13:18:30;;;;;;;21.05;6.45;;;;;;;;;;5056043;28;20258;-65
2022/03/23 13:20:57;;;;;;;21.48;9.38;;;;;;;;;;5071590;28;20575;-65
2022/03/23 13:23:23;;;;;;;17.55;10.13;;;;;;;;;;5053777;28;20374;-65
2022/03/23 13:26:16;;;;;;;25.05;9.77;;;;;;;;;;5071154;28;20044;-65
2022/03/23 13:28:43;;;;;;;19.98;9.93;;;;;;;;;;5048911;28;20223;-64
2022/03/23 13:31:12;;;;;;;24.55;9.40;;;;;;;;;;5070556;28;20561;-65
2022/03/23 13:33:49;;;;;;;27.95;9.02;;;;;;;;;;5069826;28;20040;-65
2022/03/23 13:36:16;;;;;;;23.88;8.82;;;;;;;;;;5070276;28;20512;-65
2022/03/23 13:38:46;;;;;;;23.83;9.20;;;;;;;;;;5070591;28;20072;-65
2022/03/23 13:43:58;;;;;;;16.80;9.30;;;;;;;;;;5047395;28;20059;-65
2022/03/23 13:46:25;;;;;;;26.20;9.77;;;;;;;;;;5070982;28;20040;-65
2022/03/23 13:49:01;;;;;;;20.98;9.10;;;;;;;;;;5052974;28;20570;-65
2022/03/23 13:51:28;;;;;;;24.30;9.55;;;;;;;;;;5069712;28;20041;-65
2022/03/23 13:53:58;;;;;;;22.23;9.75;;;;;;;;;;5079110;28;20519;-65
2022/03/23 13:56:25;;;;;;;20.40;8.15;;;;;;;;;;5054316;28;20051;-65
2022/03/23 13:58:51;;;;;;;17.40;8.10;;;;;;;;;;5057880;28;20062;-65
2022/03/23 14:01:18;;;;;;;17.88;8.32;;;;;;;;;;5058540;28;20051;-65
2022/03/23 14:03:44;;;;;;;21.05;8.52;;;;;;;;;;5058045;28;20692;-65
2022/03/23 14:06:14;;;;;;;19.80;8.93;;;;;;;;;;5056605;28;20079;-65
2022/03/23 14:08:40;;;;;;;17.48;7.72;;;;;;;;;;5056512;28;20671;-65
2022/03/23 14:11:10;;;;;;;16.67;7.38;;;;;;;;;;5055866;28;20044;-65
2022/03/23 14:13:40;;;;;;;18.60;8.38;;;;;;;;;;5070509;28;20469;-65
2022/03/23 14:16:06;;;;;;;21.80;7.85;;;;;;;;;;5054128;28;20040;-65
2022/03/23 14:18:33;;;;;;;15.77;8.07;;;;;;;;;;5073356;28;20045;-65
2022/03/23 14:21:01;;;;;;;18.02;7.75;;;;;;;;;;5056360;28;20052;-64
2022/03/23 14:23:31;;;;;;;17.13;7.93;;;;;;;;;;5072638;28;20070;-67
2022/03/23 14:25:58;;;;;;;22.45;7.38;;;;;;;;;;5073609;28;20500;-65
2022/03/23 14:28:27;;;;;;;23.80;7.50;;;;;;;;;;5055345;28;20131;-65
2022/03/23 14:30:58;;;;;;;18.15;7.45;;;;;;;;;;5057029;28;20049;-65
2022/03/23 14:33:25;;;;;;;16.75;7.38;;;;;;;;;;5058719;28;20106;-65
2022/03/23 14:35:53;;;;;;;14.88;8.50;;;;;;;;;;5073715;28;20068;-65
2022/03/23 14:38:20;;;;;;;16.48;7.80;;;;;;;;;;5058958;28;20400;-65
2022/03/23 14:40:57;;;;;;;25.30;8.40;;;;;;;;;;5071553;28;20441;-65
2022/03/23 14:43:36;;;;;;;26.42;8.10;;;;;;;;;;5058082;28;20080;-65
2022/03/23 14:46:21;;;;;;;19.80;8.73;;;;;;;;;;5075693;28;20040;-65
2022/03/23 14:49:07;;;;;;;15.35;8.05;;;;;;;;;;5055701;28;20530;-65
2022/03/23 14:51:33;;;;;;;;;;;;;;;;;;5056089;28;20140;-65
2022/03/23 14:54:02;;;;;;;21.80;8.75;;;;;;;;;;5055208;28;19969;-65
2022/03/23 14:56:28;;;;;;;15.77;8.30;;;;;;;;;;5055390;28;20095;-65
2022/03/23 14:58:58;;;;;;;17.80;7.32;;;;;;;;;;5052713;28;20088;-65